Time;durP1;ratioP1;P1;durP2;ratioP2;P2;SDS_P1;SDS_P2;PMS_P1;PMS_P2;Temp;Humidity;BMP_temperature;BMP_pressure;BME280_temperature;BME280_humidity;BME280_pressure;Samples;Min_cycle;Max_cycle;Signal;HPM_P1;HPM_P2
2021/07/21 00:01:59;;;;;;;;;;;;;;;18.22;91.68;99622.88;4950866;28;19960;-65
2021/07/21 00:04:25;;;;;;;;;;;;;;;18.17;89.47;99619.69;4936073;28;19915;-65
2021/07/21 00:06:50;;;;;;;;;;;;;;;18.98;86.57;99624.84;4944922;28;20276;-65
2021/07/21 00:09:16;;;;;;;;;;;;;;;19.56;79.97;99631.06;4934651;28;20340;-65
2021/07/21 00:14:25;;;;;;;;;;;;;;;18.96;81.68;99637.97;4948223;28;19960;-65
2021/07/21 00:17:04;;;;;;;;;;;;;;;18.99;80.38;99635.19;4942132;28;20364;-65
2021/07/21 00:22:14;;;;;;;;;;;;;;;19.37;78.26;99633.94;4951873;29;20302;-65
2021/07/21 00:24:43;;;;;;;;;;;;;;;18.26;85.94;99624.41;4949972;28;19962;-65
2021/07/21 00:27:08;;;;;;;;;;;;;;;17.98;88.27;99625.03;4949272;28;19919;-65
2021/07/21 00:29:34;;;;;;;;;;;;;;;18.00;89.23;99622.38;4949368;28;19915;-65
2021/07/21 00:31:59;;;;;;;;;;;;;;;17.76;90.66;99627.88;4950241;28;19921;-65
2021/07/21 00:34:25;;;;;;;;;;;;;;;17.80;90.09;99626.81;4948709;28;19918;-65
2021/07/21 00:36:50;;;;;;;;;;;;;;;17.96;90.90;99622.50;4951672;28;19922;-65
2021/07/21 00:39:15;;;;;;;;;;;;;;;17.89;90.20;99622.91;4950457;28;19942;-65
2021/07/21 00:41:41;;;;;;;;;;;;;;;17.93;91.08;99627.91;4948956;28;19914;-64
2021/07/21 00:44:07;;;;;;;;;;;;;;;18.19;88.35;99623.06;4953087;28;19926;-65
2021/07/21 00:46:34;;;;;;;;;;;;;;;18.10;87.40;99613.97;4954454;28;19914;-65
2021/07/21 00:48:59;;;;;;;;;;;;;;;17.82;90.05;99614.59;4948844;28;19915;-65
2021/07/21 00:51:24;;;;;;;;;;;;;;;17.78;91.36;99620.84;4954957;28;20460;-65
2021/07/21 00:53:50;;;;;;;;;;;;;;;18.38;85.85;99607.25;4953999;28;19972;-65
2021/07/21 00:56:15;;;;;;;;;;;;;;;17.88;87.63;99611.66;4937919;28;19921;-65
2021/07/21 00:58:41;;;;;;;;;;;;;;;17.46;92.76;99615.50;4941786;28;20349;-65
2021/07/21 01:01:06;;;;;;;;;;;;;;;17.81;90.88;99612.00;4944449;28;19922;-65
2021/07/21 01:03:32;;;;;;;;;;;;;;;18.08;87.40;99601.94;4937773;29;19915;-65
2021/07/21 01:05:58;;;;;;;;;;;;;;;17.71;90.53;99609.06;4953345;28;20273;-65
2021/07/21 01:08:24;;;;;;;;;;;;;;;18.30;84.75;99604.25;4949207;28;19926;-65
2021/07/21 01:11:08;;;;;;;;;;;;;;;18.27;84.64;99614.81;4944139;28;19915;-65
2021/07/21 01:13:53;;;;;;;;;;;;;;;18.02;87.07;99610.94;4952131;28;19918;-65
2021/07/21 01:16:22;;;;;;;;;;;;;;;18.23;83.70;99613.31;4950577;28;19925;-65
2021/07/21 01:18:52;;;;;;;;;;;;;;;18.52;81.96;99606.50;4939337;28;20780;-65
2021/07/21 01:21:36;;;;;;;;;;;;;;;18.60;82.97;99612.16;4956292;28;20028;-65
2021/07/21 01:24:09;;;;;;;;;;;;;;;18.55;83.77;99608.97;4951053;28;19914;-65
2021/07/21 01:26:42;;;;;;;;;;;;;;;17.67;90.51;99620.53;4954559;28;19914;-65
2021/07/21 01:29:08;;;;;;;;;;;;;;;17.82;89.87;99616.34;4940681;28;19915;-65
2021/07/21 01:31:35;;;;;;;;;;;;;;;18.10;84.34;99613.97;4937334;29;19914;-65
2021/07/21 01:34:00;;;;;;;;;;;;;;;18.31;85.01;99614.56;4954799;28;19923;-65
2021/07/21 01:36:28;;;;;;;;;;;;;;;18.29;84.80;99616.44;4933661;29;19922;-65
2021/07/21 01:38:54;;;;;;;;;;;;;;;18.00;85.06;99617.16;4946656;28;19985;-65
2021/07/21 01:41:30;;;;;;;;;;;;;;;18.28;87.14;99621.72;4950168;28;19919;-65
2021/07/21 01:44:03;;;;;;;;;;;;;;;17.83;90.09;99618.84;4949227;28;19956;-65
2021/07/21 01:46:29;;;;;;;;;;;;;;;17.82;85.30;99618.97;4952818;28;19946;-65
2021/07/21 01:48:55;;;;;;;;;;;;;;;17.02;93.16;99618.56;4948867;28;19953;-65
2021/07/21 01:51:22;;;;;;;;;;;;;;;17.78;89.84;99613.84;4944432;28;19918;-65
2021/07/21 01:53:48;;;;;;;;;;;;;;;17.89;89.74;99621.16;4957618;28;19918;-65
2021/07/21 01:56:13;;;;;;;;;;;;;;;17.25;93.32;99614.00;4949129;28;20438;-65
2021/07/21 01:58:39;;;;;;;;;;;;;;;17.42;90.97;99616.56;4962301;28;20427;-65
2021/07/21 02:01:06;;;;;;;;;;;;;;;17.17;93.39;99613.50;4942555;28;19921;-65
2021/07/21 02:03:31;;;;;;;;;;;;;;;17.35;88.66;99615.19;4939334;28;20337;-65
2021/07/21 02:06:01;;;;;;;;;;;;;;;17.45;88.71;99618.22;4952726;28;19922;-65
2021/07/21 02:08:26;;;;;;;;;;;;;;;17.98;88.03;99615.47;4939894;28;20665;-65
2021/07/21 02:10:52;;;;;;;;;;;;;;;17.96;87.15;99617.31;4939121;28;20079;-65
2021/07/21 02:13:18;;;;;;;;;;;;;;;17.12;92.27;99613.75;4941183;28;19915;-65
2021/07/21 02:15:44;;;;;;;;;;;;;;;17.19;90.31;99616.88;4937625;28;19915;-65
2021/07/21 02:18:10;;;;;;;;;;;;;;;17.20;90.94;99616.81;4935538;28;20558;-65
2021/07/21 02:20:36;;;;;;;;;;;;;;;17.34;90.90;99613.53;4942432;28;20013;-65
2021/07/21 02:23:02;;;;;;;;;;;;;;;17.33;91.97;99617.03;4930629;28;19914;-65
2021/07/21 02:25:27;;;;;;;;;;;;;;;17.60;90.74;99613.97;4945831;28;19929;-65
2021/07/21 02:27:53;;;;;;;;;;;;;;;17.15;89.46;99616.19;4933585;28;19915;-65
2021/07/21 02:30:18;;;;;;;;;;;;;;;17.14;91.90;99615.34;4943034;28;19914;-65
2021/07/21 02:33:04;;;;;;;;;;;;;;;17.68;89.54;99607.44;4948181;28;19919;-65
2021/07/21 02:35:30;;;;;;;;;;;;;;;17.25;88.24;99614.00;4956920;28;19978;-65
2021/07/21 02:37:57;;;;;;;;;;;;;;;17.42;92.23;99610.53;4950947;28;19918;-65
2021/07/21 02:40:23;;;;;;;;;;;;;;;17.53;91.04;99613.44;4951221;28;19924;-65
2021/07/21 02:42:48;;;;;;;;;;;;;;;17.24;87.69;99614.91;4951761;28;19914;-65
2021/07/21 02:45:14;;;;;;;;;;;;;;;16.28;99.56;99621.13;4949096;28;19915;-65
2021/07/21 02:47:40;;;;;;;;;;;;;;;17.40;94.28;99608.00;4950881;28;19922;-65
2021/07/21 02:50:06;;;;;;;;;;;;;;;17.51;87.91;99613.50;4944333;28;19927;-65
2021/07/21 02:52:35;;;;;;;;;;;;;;;17.33;87.67;99611.81;4951927;28;19914;-65
2021/07/21 02:55:09;;;;;;;;;;;;;;;17.41;86.17;99620.13;4952360;28;20152;-65
2021/07/21 02:57:38;;;;;;;;;;;;;;;17.37;90.39;99618.56;4942890;28;20013;-65
2021/07/21 03:00:08;;;;;;;;;;;;;;;16.72;95.48;99616.50;4949312;28;20020;-65
2021/07/21 03:02:34;;;;;;;;;;;;;;;17.39;91.13;99621.94;4961795;28;20331;-65
2021/07/21 03:04:59;;;;;;;;;;;;;;;17.45;90.24;99619.03;4950342;28;19914;-65
2021/07/21 03:07:25;;;;;;;;;;;;;;;17.02;95.47;99622.94;4944579;28;19998;-65
2021/07/21 03:09:52;;;;;;;;;;;;;;;17.22;90.37;99619.31;4948969;28;19918;-65
2021/07/21 03:12:17;;;;;;;;;;;;;;;17.35;88.30;99626.44;4951713;28;19914;-65
2021/07/21 03:14:43;;;;;;;;;;;;;;;17.00;92.11;99623.00;4966193;28;20388;-65
2021/07/21 03:17:13;;;;;;;;;;;;;;;16.90;93.84;99621.75;4942536;28;19977;-65
2021/07/21 03:19:39;;;;;;;;;;;;;;;17.24;88.48;99627.91;4958308;28;19919;-65
2021/07/21 03:22:05;;;;;;;;;;;;;;;17.24;90.17;99622.69;4950431;29;19925;-65
2021/07/21 03:24:30;;;;;;;;;;;;;;;16.66;94.59;99619.38;4950867;28;20376;-65
2021/07/21 03:26:56;;;;;;;;;;;;;;;17.04;91.50;99627.13;4942895;29;19915;-65
2021/07/21 03:29:21;;;;;;;;;;;;;;;16.65;90.64;99630.69;4931548;29;19926;-65
2021/07/21 03:31:47;;;;;;;;;;;;;;;16.18;96.04;99635.47;4932628;29;19929;-65
2021/07/21 03:34:13;;;;;;;;;;;;;;;16.19;97.92;99635.38;4947510;29;20372;-65
2021/07/21 03:36:39;;;;;;;;;;;;;;;16.56;97.33;99631.13;4943995;29;19919;-65
2021/07/21 03:39:06;;;;;;;;;;;;;;;16.67;95.46;99636.69;4972655;28;19922;-65
2021/07/21 03:41:32;;;;;;;;;;;;;;;16.31;97.69;99632.25;4952423;28;19926;-65
2021/07/21 03:43:58;;;;;;;;;;;;;;;15.82;100.00;99642.22;4960243;28;19925;-65
2021/07/21 03:46:23;;;;;;;;;;;;;;;16.56;99.07;99641.53;4934597;29;19919;-65
2021/07/21 03:48:49;;;;;;;;;;;;;;;16.53;96.91;99639.06;4942477;28;19959;-65
2021/07/21 03:51:14;;;;;;;;;;;;;;;16.46;98.42;99642.84;4951189;28;19914;-65
2021/07/21 03:53:40;;;;;;;;;;;;;;;16.93;96.45;99640.66;4951943;28;19985;-65
2021/07/21 03:56:06;;;;;;;;;;;;;;;16.72;95.11;99637.28;4950843;28;20361;-65
2021/07/21 03:58:32;;;;;;;;;;;;;;;16.35;100.00;99642.50;4949130;28;19965;-65
2021/07/21 04:00:58;;;;;;;;;;;;;;;16.59;94.93;99648.34;4947455;28;19945;-65
2021/07/21 04:03:23;;;;;;;;;;;;;;;16.80;94.45;99649.13;4925488;29;20457;-65
2021/07/21 04:05:50;;;;;;;;;;;;;;;16.83;96.20;99654.16;4947363;28;19970;-65
2021/07/21 04:08:15;;;;;;;;;;;;;;;16.57;97.21;99652.78;4928414;29;20404;-65
2021/07/21 04:10:41;;;;;;;;;;;;;;;16.20;100.00;99655.28;4942515;28;19915;-65
2021/07/21 04:13:06;;;;;;;;;;;;;;;16.09;100.00;99653.16;4918065;28;20352;-65
2021/07/21 04:15:32;;;;;;;;;;;;;;;15.92;100.00;99660.00;4945690;28;20295;-65
2021/07/21 04:17:58;;;;;;;;;;;;;;;16.27;100.00;99656.69;4948297;28;19918;-65
2021/07/21 04:20:24;;;;;;;;;;;;;;;16.10;100.00;99664.38;4953094;28;19915;-65
2021/07/21 04:22:51;;;;;;;;;;;;;;;16.37;100.00;99661.47;4931515;28;19914;-65
2021/07/21 04:25:17;;;;;;;;;;;;;;;16.66;99.29;99658.38;4954599;28;20369;-65
2021/07/21 04:27:42;;;;;;;;;;;;;;;16.42;100.00;99664.69;4955093;28;19914;-65
2021/07/21 04:30:08;;;;;;;;;;;;;;;16.84;100.00;99666.28;4954298;28;19919;-65
2021/07/21 04:32:34;;;;;;;;;;;;;;;16.78;96.00;99667.34;4931342;29;19954;-65
2021/07/21 04:34:59;;;;;;;;;;;;;;;16.92;98.60;99669.34;4952858;28;20009;-65
2021/07/21 04:37:25;;;;;;;;;;;;;;;16.84;97.43;99663.69;4949746;28;19914;-65
2021/07/21 04:39:54;;;;;;;;;;;;;;;16.69;100.00;99663.47;4957809;28;19919;-65
2021/07/21 04:42:20;;;;;;;;;;;;;;;17.11;98.50;99672.75;4949348;28;19923;-65
2021/07/21 04:44:46;;;;;;;;;;;;;;;17.12;100.00;99671.84;4958012;28;20053;-65
2021/07/21 04:47:11;;;;;;;;;;;;;;;16.57;100.00;99674.41;4954952;28;19916;-65
2021/07/21 04:49:38;;;;;;;;;;;;;;;16.80;100.00;99675.13;4952962;28;20355;-65
2021/07/21 04:52:04;;;;;;;;;;;;;;;17.45;100.00;99684.16;4955680;28;20348;-65
2021/07/21 04:54:29;;;;;;;;;;;;;;;17.25;99.28;99692.09;4956403;28;20288;-65
2021/07/21 04:56:58;;;;;;;;;;;;;;;17.37;97.33;99688.88;4970930;28;19934;-65
2021/07/21 04:59:23;;;;;;;;;;;;;;;17.50;96.74;99691.72;4956610;28;20471;-65
2021/07/21 05:01:50;;;;;;;;;;;;;;;17.28;100.00;99700.56;4954369;28;19922;-65
2021/07/21 05:04:17;;;;;;;;;;;;;;;17.39;98.66;99700.06;4956399;28;19914;-65
2021/07/21 05:06:43;;;;;;;;;;;;;;;16.72;100.00;99699.72;4965612;28;19968;-65
2021/07/21 05:09:08;;;;;;;;;;;;;;;16.75;100.00;99703.09;4956483;28;19941;-65
2021/07/21 05:11:34;;;;;;;;;;;;;;;16.77;100.00;99706.47;4955580;28;19914;-65
2021/07/21 05:13:59;;;;;;;;;;;;;;;16.64;100.00;99707.00;4948222;28;20372;-65
2021/07/21 05:16:25;;;;;;;;;;;;;;;17.65;97.83;99705.72;4950322;28;19925;-65
2021/07/21 05:18:50;;;;;;;;;;;;;;;17.92;87.58;99706.13;4955124;28;20384;-65
2021/07/21 05:21:16;;;;;;;;;;;;;;;18.04;93.76;99712.47;4954361;28;20293;-65
2021/07/21 05:23:41;;;;;;;;;;;;;;;17.68;98.91;99716.03;4949611;28;20380;-65
2021/07/21 05:26:09;;;;;;;;;;;;;;;17.41;99.48;99719.06;4942388;28;19923;-65
2021/07/21 05:28:37;;;;;;;;;;;;;;;17.71;97.87;99721.91;4950147;28;19914;-65
2021/07/21 05:31:03;;;;;;;;;;;;;;;17.73;95.78;99714.03;4927666;28;19915;-65
2021/07/21 05:33:28;;;;;;;;;;;;;;;18.17;94.07;99714.38;4928306;28;19938;-65
2021/07/21 05:35:54;;;;;;;;;;;;;;;18.15;92.00;99720.59;4949477;28;20363;-65
2021/07/21 05:38:19;;;;;;;;;;;;;;;18.23;97.14;99718.44;4953118;28;20396;-65
2021/07/21 05:40:45;;;;;;;;;;;;;;;18.00;93.34;99727.44;4940021;28;20414;-65
2021/07/21 05:43:10;;;;;;;;;;;;;;;17.90;96.17;99727.09;4951887;28;20112;-65
2021/07/21 05:45:36;;;;;;;;;;;;;;;18.04;98.17;99728.13;4946430;28;19915;-65
2021/07/21 05:48:01;;;;;;;;;;;;;;;18.03;92.54;99729.06;4953265;28;19914;-65
2021/07/21 05:50:27;;;;;;;;;;;;;;;18.23;98.88;99728.88;4952652;28;19993;-65
2021/07/21 05:52:53;;;;;;;;;;;;;;;18.22;95.86;99732.38;4952777;28;19914;-65
2021/07/21 05:55:18;;;;;;;;;;;;;;;18.12;98.34;99733.78;4952350;28;19918;-65
2021/07/21 05:57:44;;;;;;;;;;;;;;;18.49;96.50;99737.09;4952541;28;19953;-65
2021/07/21 06:00:10;;;;;;;;;;;;;;;18.23;97.49;99734.09;4950525;28;19915;-65
2021/07/21 06:02:36;;;;;;;;;;;;;;;18.25;98.50;99734.84;4952822;28;19921;-65
2021/07/21 06:05:01;;;;;;;;;;;;;;;18.53;97.89;99730.78;4965171;28;20405;-65
2021/07/21 06:07:27;;;;;;;;;;;;;;;18.55;99.58;99728.94;4953108;28;19915;-65
2021/07/21 06:09:52;;;;;;;;;;;;;;;18.72;94.68;99736.69;4938802;28;20419;-65
2021/07/21 06:12:18;;;;;;;;;;;;;;;18.71;95.55;99734.19;4942041;28;20192;-65
2021/07/21 06:14:43;;;;;;;;;;;;;;;18.94;98.25;99730.34;4947293;28;19918;-65
2021/07/21 06:17:08;;;;;;;;;;;;;;;18.75;99.24;99739.16;4940839;28;19925;-65
2021/07/21 06:19:34;;;;;;;;;;;;;;;18.41;100.00;99742.72;4950314;28;19922;-65
2021/07/21 06:22:01;;;;;;;;;;;;;;;18.99;100.00;99744.00;4951768;28;19927;-65
2021/07/21 06:24:26;;;;;;;;;;;;;;;19.32;96.42;99751.72;4947511;28;19918;-65
2021/07/21 06:26:52;;;;;;;;;;;;;;;19.06;96.51;99753.16;4972339;28;20533;-65
2021/07/21 06:29:17;;;;;;;;;;;;;;;19.43;91.94;99743.28;4951756;28;19915;-65
2021/07/21 06:31:42;;;;;;;;;;;;;;;19.02;100.00;99751.66;4952629;28;20244;-65
2021/07/21 06:34:08;;;;;;;;;;;;;;;19.96;96.88;99755.06;4951656;28;19974;-65
2021/07/21 06:36:33;;;;;;;;;;;;;;;19.95;91.16;99758.59;4950890;28;20307;-65
2021/07/21 06:38:59;;;;;;;;;;;;;;;20.09;92.77;99759.56;4947889;28;20343;-65
2021/07/21 06:41:24;;;;;;;;;;;;;;;20.15;92.50;99756.59;4951661;28;20392;-65
2021/07/21 06:43:52;;;;;;;;;;;;;;;20.21;92.74;99766.69;4944047;28;19915;-65
2021/07/21 06:46:18;;;;;;;;;;;;;;;20.51;87.07;99752.69;4947030;28;19915;-65
2021/07/21 06:48:43;;;;;;;;;;;;;;;20.62;89.53;99753.75;4950494;28;19922;-65
2021/07/21 06:51:09;;;;;;;;;;;;;;;20.62;88.08;99755.53;4952084;28;19914;-65
2021/07/21 06:53:34;;;;;;;;;;;;;;;20.27;90.60;99761.06;4951320;28;19918;-65
2021/07/21 06:56:00;;;;;;;;;;;;;;;20.09;94.77;99759.56;4951608;28;19915;-65
2021/07/21 06:58:25;;;;;;;;;;;;;;;20.59;92.63;99767.00;4948488;28;19923;-65
2021/07/21 07:00:51;;;;;;;;;;;;;;;20.95;88.94;99756.97;4955258;28;20263;-65
2021/07/21 07:03:16;;;;;;;;;;;;;;;21.03;88.86;99765.19;4961349;28;20005;-65
2021/07/21 07:05:42;;;;;;;;;;;;;;;21.21;90.54;99764.03;4951722;28;19946;-65
2021/07/21 07:08:07;;;;;;;;;;;;;;;21.34;85.87;99766.69;4951209;28;19914;-65
2021/07/21 07:10:33;;;;;;;;;;;;;;;21.31;89.49;99764.28;4947420;28;20429;-65
2021/07/21 07:12:59;;;;;;;;;;;;;;;21.46;84.98;99770.31;4947698;28;19915;-65
2021/07/21 07:15:24;;;;;;;;;;;;;;;21.72;87.07;99774.69;4941017;28;20562;-65
2021/07/21 07:17:50;;;;;;;;;;;;;;;21.65;88.93;99777.84;4941656;28;19915;-65
2021/07/21 07:20:15;;;;;;;;;;;;;;;21.64;86.29;99776.97;4951381;28;19914;-65
2021/07/21 07:22:41;;;;;;;;;;;;;;;22.00;84.61;99775.47;4943888;28;19915;-65
2021/07/21 07:25:07;;;;;;;;;;;;;;;22.09;83.46;99777.50;4947086;28;20351;-65
2021/07/21 07:27:33;;;;;;;;;;;;;;;22.37;84.30;99785.31;4943861;28;20320;-65
2021/07/21 07:29:59;;;;;;;;;;;;;;;22.47;82.41;99783.75;4951217;28;19919;-65
2021/07/21 07:32:25;;;;;;;;;;;;;;;22.55;83.89;99778.78;4948646;28;19921;-65
2021/07/21 07:34:50;;;;;;;;;;;;;;;22.04;81.46;99776.13;4951167;28;19925;-65
2021/07/21 07:37:16;;;;;;;;;;;;;;;22.62;84.54;99780.03;4946619;28;19914;-65
2021/07/21 07:39:41;;;;;;;;;;;;;;;22.02;87.08;99776.22;4950935;28;20294;-65
2021/07/21 07:42:07;;;;;;;;;;;;;;;21.26;94.26;99780.28;4952365;28;20001;-65
2021/07/21 07:44:32;;;;;;;;;;;;;;;21.52;94.20;99777.78;4940035;28;19914;-65
2021/07/21 07:46:58;;;;;;;;;;;;;;;22.19;90.31;99782.97;4942440;28;19921;-65
2021/07/21 07:49:23;;;;;;;;;;;;;;;22.39;83.18;99779.00;4950613;28;19923;-65
2021/07/21 07:51:49;;;;;;;;;;;;;;;22.39;79.31;99784.25;4962015;28;19969;-65
2021/07/21 07:54:15;;;;;;;;;;;;;;;22.66;82.99;99788.56;4946439;28;20050;-65
2021/07/21 07:56:41;;;;;;;;;;;;;;;22.98;85.43;99779.22;4947033;28;20363;-66
2021/07/21 07:59:06;;;;;;;;;;;;;;;23.19;79.31;99783.94;4954241;28;20017;-65
2021/07/21 08:01:34;;;;;;;;;;;;;;;22.87;84.10;99783.56;4949445;28;20395;-65
2021/07/21 08:03:59;;;;;;;;;;;;;;;23.54;80.53;99785.81;4950907;28;19918;-65
2021/07/21 08:06:25;;;;;;;;;;;;;;;24.07;78.10;99786.25;4949397;28;19914;-66
2021/07/21 08:08:50;;;;;;;;;;;;;;;23.96;77.94;99786.22;4950704;29;19993;-65
2021/07/21 08:11:16;;;;;;;;;;;;;;;23.85;76.31;99781.75;4939551;28;19915;-66
2021/07/21 08:13:42;;;;;;;;;;;;;;;24.48;75.92;99784.91;4950477;28;19914;-65
2021/07/21 08:16:08;;;;;;;;;;;;;;;23.94;74.07;99790.75;4939550;28;19922;-65
2021/07/21 08:18:33;;;;;;;;;;;;;;;24.34;75.13;99785.13;4950245;28;20357;-65
2021/07/21 08:20:59;;;;;;;;;;;;;;;24.74;72.38;99784.66;4951914;28;19944;-66
2021/07/21 08:23:24;;;;;;;;;;;;;;;24.47;68.23;99788.50;4948938;28;20290;-65
2021/07/21 08:25:50;;;;;;;;;;;;;;;23.99;72.48;99788.63;4950432;28;19915;-65
2021/07/21 08:28:15;;;;;;;;;;;;;;;24.79;71.29;99779.88;4951863;28;19922;-65
2021/07/21 08:30:44;;;;;;;;;;;;;;;24.66;69.03;99787.91;4963607;28;19918;-65
2021/07/21 08:33:10;;;;;;;;;;;;;;;24.99;67.03;99781.75;4949488;28;19915;-65
2021/07/21 08:35:35;;;;;;;;;;;;;;;25.18;70.14;99783.81;4949231;28;22206;-65
2021/07/21 08:38:01;;;;;;;;;;;;;;;24.51;76.90;99784.66;4950313;28;19918;-65
2021/07/21 08:40:27;;;;;;;;;;;;;;;23.41;80.92;99787.66;4947676;28;19925;-65
2021/07/21 08:42:53;;;;;;;;;;;;;;;23.91;76.33;99780.47;4948365;28;19915;-65
2021/07/21 08:45:18;;;;;;;;;;;;;;;23.30;75.84;99786.63;4929181;28;19965;-65
2021/07/21 08:47:44;;;;;;;;;;;;;;;24.36;68.08;99789.31;4950491;28;19915;-65
2021/07/21 08:50:09;;;;;;;;;;;;;;;24.32;68.31;99790.50;4944907;28;20329;-65
2021/07/21 08:52:35;;;;;;;;;;;;;;;24.50;65.56;99784.81;4950173;28;20439;-65
2021/07/21 08:55:02;;;;;;;;;;;;;;;23.40;73.16;99786.81;4950325;28;19969;-65
2021/07/21 08:57:32;;;;;;;;;;;;;;;24.95;65.00;99777.72;4933817;29;19927;-65
2021/07/21 09:00:03;;;;;;;;;;;;;;;24.66;66.25;99787.09;4946925;28;19929;-65
2021/07/21 09:02:28;;;;;;;;;;;;;;;23.65;70.20;99785.88;4950518;28;20553;-65
2021/07/21 09:04:54;;;;;;;;;;;;;;;24.27;68.06;99787.38;4950664;28;19925;-65
2021/07/21 09:07:19;;;;;;;;;;;;;;;25.67;60.78;99776.34;4954266;28;19914;-65
2021/07/21 09:09:45;;;;;;;;;;;;;;;26.61;59.31;99779.03;4951831;28;19915;-65
2021/07/21 09:12:11;;;;;;;;;;;;;;;24.95;57.22;99776.84;4942621;29;20406;-65
2021/07/21 09:14:38;;;;;;;;;;;;;;;26.55;55.96;99775.13;4954657;28;19950;-65
2021/07/21 09:17:13;;;;;;;;;;;;;;;25.50;58.77;99771.59;4942669;28;20424;-65
2021/07/21 09:19:43;;;;;;;;;;;;;;;25.97;60.54;99772.97;4947412;28;19922;-65
2021/07/21 09:22:25;;;;;;;;;;;;;;;27.03;46.27;99776.25;4938562;29;19918;-65
2021/07/21 09:25:09;;;;;;;;;;;;;;;27.02;50.99;99778.06;4943869;28;19925;-65
2021/07/21 09:27:34;;;;;;;;;;;;;;;27.16;50.51;99782.09;4940688;29;19915;-65
2021/07/21 09:30:00;;;;;;;;;;;;;;;27.09;51.21;99778.34;4949338;28;20001;-65
2021/07/21 09:32:25;;;;;;;;;;;;;;;27.44;47.65;99780.53;4952078;28;19922;-66
2021/07/21 09:34:54;;;;;;;;;;;;;;;27.13;44.62;99782.41;4949952;28;20565;-65
2021/07/21 09:37:20;;;;;;;;;;;;;;;27.34;45.85;99787.59;4951083;28;20013;-65
2021/07/21 09:39:50;;;;;;;;;;;;;;;26.71;49.86;99787.84;4952676;28;19961;-65
2021/07/21 09:42:16;;;;;;;;;;;;;;;26.11;49.27;99787.63;4947650;28;20415;-65
2021/07/21 09:44:42;;;;;;;;;;;;;;;27.90;44.34;99784.31;4947242;28;19918;-65
2021/07/21 09:47:11;;;;;;;;;;;;;;;27.59;45.02;99786.22;4951289;29;20021;-65
2021/07/21 09:49:37;;;;;;;;;;;;;;;27.49;38.63;99783.59;4947115;28;19914;-65
2021/07/21 09:52:22;;;;;;;;;;;;;;;27.66;42.52;99786.50;4951103;28;19915;-65
2021/07/21 09:55:06;;;;;;;;;;;;;;;26.21;37.53;99788.53;4952448;28;19926;-65
2021/07/21 09:57:31;;;;;;;;;;;;;;;25.31;38.57;99788.09;4949423;28;19930;-65
2021/07/21 09:59:58;;;;;;;;;;;;;;;25.44;39.08;99797.50;4949528;28;19974;-65
2021/07/21 10:02:25;;;;;;;;;;;;;;;25.33;41.06;99791.44;4948653;28;19918;-65
2021/07/21 10:04:51;;;;;;;;;;;;;;;26.04;40.52;99791.75;4949124;28;19937;-65
2021/07/21 10:09:44;;;;;;;;;;;;;;;26.46;36.28;99781.19;4971863;28;19918;-65
2021/07/21 10:12:16;;;;;;;;;;;;;;;25.76;44.87;99787.94;4932853;29;20504;-65
2021/07/21 10:14:55;;;;;;;;;;;;;;;25.37;48.93;99788.44;4947501;28;19925;-66
2021/07/21 10:17:20;;;;;;;;;;;;;;;24.84;54.96;99789.09;4952109;29;19914;-65
2021/07/21 10:19:45;;;;;;;;;;;;;;;24.36;52.11;99793.75;4947321;29;19978;-65
2021/07/21 10:22:11;;;;;;;;;;;;;;;24.61;52.34;99796.19;4949323;28;19915;-65
2021/07/21 10:24:38;;;;;;;;;;;;;;;25.15;53.64;99791.09;4948191;28;19915;-65
2021/07/21 10:27:04;;;;;;;;;;;;;;;25.87;46.23;99786.09;4966933;28;19922;-65
2021/07/21 10:29:30;;;;;;;;;;;;;;;27.18;43.28;99788.09;4944871;28;20281;-65
2021/07/21 10:31:56;;;;;;;;;;;;;;;27.17;43.02;99788.25;4950306;28;19918;-65
2021/07/21 10:34:22;;;;;;;;;;;;;;;27.42;42.09;99790.41;4945377;28;19919;-65
2021/07/21 10:36:48;;;;;;;;;;;;;;;25.61;42.28;99787.38;4947947;28;19914;-65
2021/07/21 10:39:18;;;;;;;;;;;;;;;26.48;43.87;99792.44;4949248;28;20329;-65
2021/07/21 10:41:44;;;;;;;;;;;;;;;27.22;42.99;99786.91;4944809;28;19921;-65
2021/07/21 10:44:11;;;;;;;;;;;;;;;26.86;42.21;99790.94;4948150;28;19914;-65
2021/07/21 10:46:56;;;;;;;;;;;;;;;27.26;44.74;99783.00;4950207;29;19938;-65
2021/07/21 10:49:35;;;;;;;;;;;;;;;26.11;40.04;99782.34;4944719;28;19914;-65
2021/07/21 10:54:58;;;;;;;;;;;;;;;24.73;44.33;99783.84;4952438;28;19925;-65
2021/07/21 11:00:15;;;;;;;;;;;;;;;27.56;44.44;99780.41;4951987;28;20009;-65
2021/07/21 11:02:41;;;;;;;;;;;;;;;27.18;40.48;99772.25;4951668;28;19914;-66
2021/07/21 11:05:09;;;;;;;;;;;;;;;27.26;41.34;99771.59;4951183;28;19920;-65
2021/07/21 11:07:51;;;;;;;;;;;;;;;26.42;43.08;99767.38;4948559;29;19914;-65
2021/07/21 11:10:28;;;;;;;;;;;;;;;27.81;41.91;99771.06;4965708;28;20394;-65
2021/07/21 11:12:54;;;;;;;;;;;;;;;28.67;44.10;99765.69;4951860;28;19914;-65
2021/07/21 11:15:38;;;;;;;;;;;;;;;27.75;40.67;99769.78;4951590;29;20044;-65
2021/07/21 11:18:22;;;;;;;;;;;;;;;26.26;40.38;99770.50;4962980;28;19919;-65
2021/07/21 11:21:04;;;;;;;;;;;;;;;27.99;44.25;99768.56;4955404;28;19919;-65
2021/07/21 11:24:12;;;;;;;;;;;;;;;27.82;40.54;99765.59;4949155;28;20012;-64
2021/07/21 11:26:43;;;;;;;;;;;;;;;28.08;42.25;99771.16;4911490;29;19983;-64
2021/07/21 11:31:49;;;;;;;;;;;;;;;25.10;41.21;99765.09;4928886;28;20502;-64
2021/07/21 11:34:35;;;;;;;;;;;;;;;27.01;42.09;99771.09;4946226;29;20009;-65
2021/07/21 11:37:01;;;;;;;;;;;;;;;28.92;42.42;99758.84;4947864;28;20391;-64
2021/07/21 11:39:34;;;;;;;;;;;;;;;28.79;40.02;99764.53;4947552;28;20053;-64
2021/07/21 11:42:00;;;;;;;;;;;;;;;27.68;39.33;99755.44;4948608;28;19926;-64
2021/07/21 11:44:40;;;;;;;;;;;;;;;29.41;38.58;99756.75;4946111;28;19942;-64
2021/07/21 11:47:06;;;;;;;;;;;;;;;26.96;35.54;99757.47;4947677;29;19954;-64
2021/07/21 11:49:32;;;;;;;;;;;;;;;28.91;38.13;99751.91;4940484;28;19918;-64
2021/07/21 11:51:59;;;;;;;;;;;;;;;29.64;35.19;99749.16;4942117;28;19934;-64
2021/07/21 11:54:27;;;;;;;;;;;;;;;29.44;34.58;99753.78;4945541;28;20249;-64
2021/07/21 11:56:53;;;;;;;;;;;;;;;29.04;34.75;99746.25;4944272;28;19942;-64
2021/07/21 11:59:26;;;;;;;;;;;;;;;28.61;34.26;99755.69;4949917;28;19918;-65
2021/07/21 12:02:07;;;;;;;;;;;;;;;29.61;36.22;99749.47;4940194;28;19998;-65
2021/07/21 12:04:33;;;;;;;;;;;;;;;29.23;35.11;99750.59;4933277;28;19915;-64
2021/07/21 12:06:59;;;;;;;;;;;;;;;29.77;36.31;99752.28;4938275;28;19921;-65
2021/07/21 12:09:28;;;;;;;;;;;;;;;30.09;33.37;99753.50;4934723;29;20280;-65
2021/07/21 12:11:54;;;;;;;;;;;;;;;30.06;35.33;99753.81;4946703;28;19922;-64
2021/07/21 12:14:22;;;;;;;;;;;;;;;28.82;34.60;99748.31;4949288;28;19922;-64
2021/07/21 12:16:47;;;;;;;;;;;;;;;28.63;33.45;99754.56;4947325;28;19915;-64
2021/07/21 12:19:13;;;;;;;;;;;;;;;28.89;35.10;99753.84;4942005;28;20028;-64
2021/07/21 12:21:38;;;;;;;;;;;;;;;29.84;34.98;99751.66;4931717;29;19915;-64
2021/07/21 12:24:05;;;;;;;;;;;;;;;29.75;37.21;99748.94;4952183;28;19921;-64
2021/07/21 12:26:37;;;;;;;;;;;;;;;28.60;38.14;99754.84;4933064;29;19950;-64
2021/07/21 12:29:03;;;;;;;;;;;;;;;27.49;42.31;99753.66;4939318;28;19915;-64
2021/07/21 12:31:31;;;;;;;;;;;;;;;26.87;47.44;99763.56;4935866;28;19915;-64
2021/07/21 12:34:13;;;;;;;;;;;;;;;26.39;43.79;99758.88;4918554;29;19926;-64
2021/07/21 12:36:44;;;;;;;;;;;;;;;25.28;44.99;99754.06;4952113;28;20313;-64
2021/07/21 12:39:09;;;;;;;;;;;;;;;26.38;46.77;99755.41;4963505;28;20018;-64
2021/07/21 12:41:35;;;;;;;;;;;;;;;25.19;47.03;99747.75;4953375;28;20013;-64
2021/07/21 12:44:01;;;;;;;;;;;;;;;25.94;47.82;99751.28;4942446;28;20455;-64
2021/07/21 12:46:26;;;;;;;;;;;;;;;26.02;46.59;99751.47;4926267;29;19918;-64
2021/07/21 12:48:53;;;;;;;;;;;;;;;27.84;42.46;99758.38;4941111;29;19922;-64
2021/07/21 12:51:20;;;;;;;;;;;;;;;26.08;42.82;99751.78;4953917;29;19961;-64
2021/07/21 12:53:46;;;;;;;;;;;;;;;27.23;43.45;99742.75;4953449;28;19965;-64
2021/07/21 12:56:11;;;;;;;;;;;;;;;27.84;41.54;99746.97;4935057;29;19918;-65
2021/07/21 12:58:37;;;;;;;;;;;;;;;26.72;46.99;99752.53;4936017;29;19923;-64
2021/07/21 13:01:02;;;;;;;;;;;;;;;26.76;45.15;99756.56;4927192;29;19914;-64
2021/07/21 13:03:28;;;;;;;;;;;;;;;27.73;41.51;99753.22;4925360;28;19922;-64